createdAt,value
2019-03-19T00:00:54.011Z,100900.00
2019-03-19T00:03:26.877Z,100897.00
2019-03-19T00:06:01.272Z,100906.00
2019-03-19T00:08:34.231Z,100908.00
2019-03-19T00:11:07.199Z,100904.00
2019-03-19T00:13:40.002Z,100907.00
2019-03-19T00:16:12.973Z,100916.00
2019-03-19T00:18:45.793Z,100907.00
2019-03-19T00:21:18.661Z,100909.00
2019-03-19T00:23:51.473Z,100905.00
2019-03-19T00:26:24.316Z,100923.00
2019-03-19T00:28:57.179Z,100908.00
2019-03-19T00:31:30.009Z,100917.00
2019-03-19T00:34:02.941Z,100926.00
2019-03-19T00:36:35.765Z,100918.00
2019-03-19T00:39:08.571Z,100930.00
2019-03-19T00:41:41.393Z,100926.00
2019-03-19T00:44:14.206Z,100931.00
2019-03-19T00:46:47.020Z,100922.00
2019-03-19T00:49:19.836Z,100920.00
2019-03-19T00:51:52.660Z,100918.00
2019-03-19T00:54:25.524Z,100917.00
2019-03-19T00:56:58.356Z,100918.00
2019-03-19T00:59:31.236Z,100910.00
2019-03-19T01:02:04.101Z,100921.00
2019-03-19T01:04:36.918Z,100920.00
2019-03-19T01:07:09.737Z,100928.00
2019-03-19T01:09:42.525Z,100927.00
2019-03-19T01:12:15.371Z,100925.00
2019-03-19T01:14:48.170Z,100925.00
2019-03-19T01:17:20.993Z,100916.00
2019-03-19T01:19:53.806Z,100921.00
2019-03-19T01:22:26.672Z,100924.00
2019-03-19T01:24:59.489Z,100925.00
2019-03-19T01:27:32.316Z,100935.00
2019-03-19T01:30:06.747Z,100932.00
2019-03-19T01:32:39.595Z,100937.00
2019-03-19T01:35:12.409Z,100931.00
2019-03-19T01:37:45.262Z,100929.00
2019-03-19T01:40:18.090Z,100933.00
2019-03-19T01:42:50.921Z,100929.00
2019-03-19T01:45:23.761Z,100933.00
2019-03-19T01:47:56.657Z,100933.00
2019-03-19T01:50:29.484Z,100933.00
2019-03-19T01:53:02.346Z,100930.00
2019-03-19T01:55:35.164Z,100925.00
2019-03-19T01:58:07.996Z,100923.00
2019-03-19T02:00:40.853Z,100929.00
2019-03-19T02:03:13.712Z,100923.00
2019-03-19T02:05:46.569Z,100917.00
2019-03-19T02:08:19.631Z,100910.00
2019-03-19T02:10:52.407Z,100920.00
2019-03-19T02:13:25.232Z,100922.00
2019-03-19T02:15:58.066Z,100929.00
2019-03-19T02:18:30.879Z,100936.00
2019-03-19T02:21:03.715Z,100936.00
2019-03-19T02:23:36.548Z,100925.00
2019-03-19T02:26:16.326Z,100934.00
2019-03-19T02:28:44.146Z,100939.00
2019-03-19T02:31:16.974Z,100940.00
2019-03-19T02:33:49.803Z,100935.00
2019-03-19T02:36:22.638Z,100943.00
2019-03-19T02:38:55.440Z,100938.00
2019-03-19T02:41:28.262Z,100953.00
2019-03-19T02:44:01.114Z,100955.00
2019-03-19T02:46:33.934Z,100953.00
2019-03-19T02:49:08.666Z,100944.00
2019-03-19T02:51:41.503Z,100958.00
2019-03-19T02:54:14.564Z,100962.00
2019-03-19T02:56:47.395Z,100965.00
2019-03-19T02:59:20.205Z,100961.00
2019-03-19T03:01:53.175Z,100972.00
2019-03-19T03:04:25.973Z,100975.00
2019-03-19T03:06:59.800Z,100974.00
2019-03-19T03:09:32.646Z,100964.00
2019-03-19T03:12:05.468Z,100961.00
2019-03-19T03:14:38.298Z,100971.00
2019-03-19T03:17:11.133Z,100972.00
2019-03-19T03:19:43.950Z,100974.00
2019-03-19T03:22:17.126Z,100980.00
2019-03-19T03:24:49.913Z,100985.00
2019-03-19T03:27:22.752Z,100981.00
2019-03-19T03:29:55.576Z,100979.00
2019-03-19T03:32:28.405Z,100985.00
2019-03-19T03:35:01.218Z,100984.00
2019-03-19T03:37:34.209Z,100984.00
2019-03-19T03:40:09.052Z,100980.00
2019-03-19T03:42:43.240Z,100988.00
2019-03-19T03:45:16.468Z,100992.00
2019-03-19T03:47:49.309Z,100999.00
2019-03-19T03:50:22.101Z,101004.00
2019-03-19T03:52:55.130Z,101002.00
2019-03-19T03:55:31.096Z,101015.00
2019-03-19T03:58:02.907Z,101010.00
2019-03-19T04:00:36.017Z,101018.00
2019-03-19T04:03:08.945Z,101020.00
2019-03-19T04:05:41.740Z,101029.00
2019-03-19T04:08:14.584Z,101030.00
2019-03-19T04:10:47.406Z,101019.00
2019-03-19T04:13:20.227Z,101032.00
2019-03-19T04:15:53.026Z,101022.00
2019-03-19T04:18:25.863Z,101040.00
2019-03-19T04:20:58.698Z,101043.00
2019-03-19T04:23:31.561Z,101050.00
2019-03-19T04:26:04.368Z,101048.00
2019-03-19T04:28:37.208Z,101055.00
2019-03-19T04:31:10.017Z,101052.00
2019-03-19T04:33:43.022Z,101059.00
2019-03-19T04:36:15.859Z,101067.00
2019-03-19T04:38:48.706Z,101071.00
2019-03-19T04:41:21.506Z,101064.00
2019-03-19T04:43:54.318Z,101073.00
2019-03-19T04:46:27.145Z,101071.00
2019-03-19T04:48:59.991Z,101092.00
2019-03-19T04:51:32.789Z,101075.00
2019-03-19T04:54:05.638Z,101081.00
2019-03-19T04:56:38.602Z,101085.00
2019-03-19T04:59:11.436Z,101078.00
2019-03-19T05:01:44.255Z,101087.00
2019-03-19T05:04:17.111Z,101085.00
2019-03-19T05:06:49.973Z,101087.00
2019-03-19T05:09:22.823Z,101103.00
2019-03-19T05:11:55.631Z,101083.00
2019-03-19T05:14:28.476Z,101083.00
2019-03-19T05:17:01.305Z,101101.00
2019-03-19T05:19:34.131Z,101101.00
2019-03-19T05:22:06.899Z,101106.00
2019-03-19T05:24:39.796Z,101117.00
2019-03-19T05:27:13.971Z,101115.00
2019-03-19T05:29:46.958Z,101114.00
2019-03-19T05:32:19.794Z,101117.00
2019-03-19T05:34:52.657Z,101132.00
2019-03-19T05:37:25.748Z,101136.00
2019-03-19T05:39:58.638Z,101129.00
2019-03-19T05:42:31.446Z,101145.00
2019-03-19T05:45:06.282Z,101145.00
2019-03-19T05:47:40.462Z,101144.00
2019-03-19T05:50:13.875Z,101145.00
2019-03-19T05:52:48.554Z,101144.00
2019-03-19T05:55:21.566Z,101148.00
2019-03-19T05:57:54.398Z,101151.00
2019-03-19T06:00:29.579Z,101155.00
2019-03-19T06:03:02.406Z,101164.00
2019-03-19T06:05:35.241Z,101165.00
2019-03-19T06:08:09.151Z,101168.00
2019-03-19T06:10:42.013Z,101172.00
2019-03-19T06:13:14.842Z,101175.00
2019-03-19T06:15:49.505Z,101175.00
2019-03-19T06:18:22.323Z,101183.00
2019-03-19T06:20:55.440Z,101200.00
2019-03-19T06:23:28.289Z,101197.00
2019-03-19T06:26:01.143Z,101202.00
2019-03-19T06:28:35.668Z,101195.00
2019-03-19T06:31:09.812Z,101204.00
2019-03-19T06:33:42.653Z,101212.00
2019-03-19T06:36:15.562Z,101224.00
2019-03-19T06:38:48.385Z,101228.00
2019-03-19T06:41:21.229Z,101225.00
2019-03-19T06:43:54.035Z,101234.00
2019-03-19T06:46:26.911Z,101236.00
2019-03-19T06:48:59.753Z,101236.00
2019-03-19T06:51:32.602Z,101235.00
2019-03-19T06:54:05.439Z,101249.00
2019-03-19T06:56:38.294Z,101254.00
2019-03-19T06:59:11.190Z,101251.00
2019-03-19T07:01:44.038Z,101267.00
2019-03-19T07:04:16.868Z,101269.00
2019-03-19T07:06:49.707Z,101260.00
2019-03-19T07:09:22.534Z,101266.00
2019-03-19T07:11:55.373Z,101268.00
2019-03-19T07:14:28.212Z,101269.00
2019-03-19T07:17:01.057Z,101265.00
2019-03-19T07:19:35.217Z,101287.00
2019-03-19T07:22:08.024Z,101282.00
2019-03-19T07:24:40.839Z,101273.00
2019-03-19T07:27:13.689Z,101275.00
2019-03-19T07:29:46.525Z,101281.00
2019-03-19T07:32:19.374Z,101282.00
2019-03-19T07:34:52.340Z,101280.00
2019-03-19T07:37:25.321Z,101274.00
2019-03-19T07:39:58.156Z,101283.00
2019-03-19T07:42:30.987Z,101274.00
2019-03-19T07:45:04.861Z,101270.00
2019-03-19T07:47:37.668Z,101266.00
2019-03-19T07:50:12.472Z,101288.00
2019-03-19T07:52:45.293Z,101299.00
2019-03-19T07:55:18.477Z,101285.00
2019-03-19T07:57:51.320Z,101290.00
2019-03-19T08:00:24.285Z,101282.00
2019-03-19T08:02:57.114Z,101301.00
2019-03-19T08:05:33.428Z,101296.00
2019-03-19T08:08:06.679Z,101296.00
2019-03-19T08:10:39.520Z,101304.00
2019-03-19T08:13:12.338Z,101303.00
2019-03-19T08:15:45.180Z,101311.00
2019-03-19T08:18:18.258Z,101318.00
2019-03-19T08:20:51.149Z,101330.00
2019-03-19T08:23:24.135Z,101344.00
2019-03-19T08:25:57.200Z,101335.00
2019-03-19T08:28:30.092Z,101350.00
2019-03-19T08:31:03.138Z,101332.00
2019-03-19T08:33:35.968Z,101344.00
2019-03-19T08:36:09.723Z,101355.00
2019-03-19T08:38:44.562Z,101350.00
2019-03-19T08:41:18.479Z,101352.00
2019-03-19T08:43:52.682Z,101364.00
2019-03-19T08:46:26.814Z,101348.00
2019-03-19T08:48:59.677Z,101355.00
2019-03-19T08:51:32.556Z,101359.00
2019-03-19T08:54:05.377Z,101364.00
2019-03-19T08:56:38.242Z,101364.00
2019-03-19T08:59:11.063Z,101375.00
2019-03-19T09:01:43.901Z,101385.00
2019-03-19T09:04:16.732Z,101382.00
2019-03-19T09:06:49.728Z,101376.00
2019-03-19T09:09:22.570Z,101383.00
2019-03-19T09:11:55.442Z,101388.00
2019-03-19T09:14:28.302Z,101383.00
2019-03-19T09:17:01.410Z,101367.00
2019-03-19T09:19:34.297Z,101377.00
2019-03-19T09:22:07.330Z,101378.00
2019-03-19T09:24:40.167Z,101375.00
2019-03-19T09:27:13.032Z,101376.00
2019-03-19T09:29:46.071Z,101388.00
2019-03-19T09:32:18.926Z,101392.00
2019-03-19T09:34:51.740Z,101391.00
2019-03-19T09:37:24.606Z,101378.00
2019-03-19T09:39:57.466Z,101376.00
2019-03-19T09:42:30.405Z,101383.00
2019-03-19T09:45:04.144Z,101372.00
2019-03-19T09:47:38.544Z,101367.00
2019-03-19T09:50:12.932Z,101372.00
2019-03-19T09:52:45.763Z,101364.00
2019-03-19T09:55:18.583Z,101369.00
2019-03-19T09:57:51.414Z,101364.00
2019-03-19T10:00:24.303Z,101370.00
2019-03-19T10:02:57.189Z,101363.00
2019-03-19T10:05:30.195Z,101356.00
2019-03-19T10:08:03.131Z,101364.00
2019-03-19T10:10:36.082Z,101365.00
2019-03-19T10:13:09.159Z,101358.00
2019-03-19T10:15:42.044Z,101359.00
2019-03-19T10:18:16.014Z,101382.00
2019-03-19T10:20:48.895Z,101380.00
2019-03-19T10:23:21.742Z,101385.00
2019-03-19T10:25:54.662Z,101383.00
2019-03-19T10:28:27.542Z,101372.00
2019-03-19T10:31:00.376Z,101367.00
2019-03-19T10:33:33.247Z,101383.00
2019-03-19T10:36:07.165Z,101393.00
2019-03-19T10:38:41.084Z,101404.00
2019-03-19T10:41:13.907Z,101399.00
2019-03-19T10:43:46.775Z,101393.00
2019-03-19T10:46:19.588Z,101397.00
2019-03-19T10:48:52.645Z,101393.00
2019-03-19T10:51:25.612Z,101402.00
2019-03-19T10:53:58.550Z,101387.00
2019-03-19T10:56:31.383Z,101385.00
2019-03-19T10:59:04.224Z,101382.00
2019-03-19T11:01:37.183Z,101383.00
2019-03-19T11:04:14.384Z,101372.00
2019-03-19T11:06:47.192Z,101385.00
2019-03-19T11:09:21.011Z,101387.00
2019-03-19T11:11:53.849Z,101389.00
2019-03-19T11:14:26.713Z,101384.00
2019-03-19T11:16:59.639Z,101379.00
2019-03-19T11:19:32.481Z,101381.00
2019-03-19T11:22:05.399Z,101390.00
2019-03-19T11:24:38.293Z,101384.00
2019-03-19T11:27:11.173Z,101389.00
2019-03-19T11:29:44.045Z,101388.00
2019-03-19T11:32:16.945Z,101388.00
2019-03-19T11:34:49.759Z,101387.00
2019-03-19T11:37:22.721Z,101384.00
2019-03-19T11:39:55.594Z,101375.00
2019-03-19T11:42:28.444Z,101388.00
2019-03-19T11:45:01.288Z,101379.00
2019-03-19T11:47:34.122Z,101389.00
2019-03-19T11:50:13.715Z,101375.00
2019-03-19T11:52:46.534Z,101370.00
2019-03-19T11:55:19.837Z,101383.00
2019-03-19T11:57:52.985Z,101371.00
2019-03-19T12:00:37.748Z,101376.00
2019-03-19T12:03:15.860Z,101383.00
2019-03-19T12:05:45.765Z,101378.00
2019-03-19T12:08:18.619Z,101388.00
2019-03-19T12:10:51.420Z,101397.00
2019-03-19T12:13:24.266Z,101407.00
2019-03-19T12:15:57.125Z,101392.00
2019-03-19T12:18:29.974Z,101395.00
2019-03-19T12:21:02.926Z,101392.00
2019-03-19T12:23:35.813Z,101392.00
2019-03-19T12:26:08.667Z,101390.00
2019-03-19T12:28:41.647Z,101393.00
2019-03-19T12:31:14.532Z,101392.00
2019-03-19T12:33:47.386Z,101403.00
2019-03-19T12:36:20.204Z,101391.00
2019-03-19T12:38:53.055Z,101381.00
2019-03-19T12:41:25.947Z,101388.00
2019-03-19T12:43:58.772Z,101386.00
2019-03-19T12:46:31.648Z,101390.00
2019-03-19T12:49:04.562Z,101381.00
2019-03-19T12:51:38.506Z,101376.00
2019-03-19T12:54:11.373Z,101372.00
2019-03-19T12:56:44.230Z,101366.00
2019-03-19T12:59:20.575Z,101376.00
2019-03-19T13:01:51.807Z,101379.00
2019-03-19T13:04:24.683Z,101379.00
2019-03-19T13:06:57.751Z,101367.00
2019-03-19T13:09:30.600Z,101364.00
2019-03-19T13:12:03.521Z,101366.00
2019-03-19T13:14:36.378Z,101367.00
2019-03-19T13:17:09.247Z,101358.00
2019-03-19T13:19:42.107Z,101356.00
2019-03-19T13:22:14.966Z,101359.00
2019-03-19T13:24:47.903Z,101356.00
2019-03-19T13:27:20.855Z,101358.00
2019-03-19T13:29:53.706Z,101356.00
2019-03-19T13:32:28.287Z,101355.00
2019-03-19T13:35:01.232Z,101358.00
2019-03-19T13:37:34.098Z,101359.00
2019-03-19T13:40:08.163Z,101346.00
2019-03-19T13:42:41.003Z,101355.00
2019-03-19T13:45:14.223Z,101362.00
2019-03-19T13:47:47.194Z,101345.00
2019-03-19T13:50:21.387Z,101359.00
2019-03-19T13:52:54.257Z,101360.00
2019-03-19T13:55:27.078Z,101359.00
2019-03-19T13:58:00.021Z,101361.00
2019-03-19T14:00:33.176Z,101357.00
2019-03-19T14:03:06.006Z,101361.00
2019-03-19T14:05:38.885Z,101358.00
2019-03-19T14:08:11.716Z,101361.00
2019-03-19T14:10:44.568Z,101356.00
2019-03-19T14:13:17.676Z,101368.00
2019-03-19T14:15:50.565Z,101356.00
2019-03-19T14:18:23.370Z,101362.00
2019-03-19T14:20:56.281Z,101364.00
2019-03-19T14:23:29.180Z,101357.00
2019-03-19T14:26:02.130Z,101348.00
2019-03-19T14:28:34.992Z,101347.00
2019-03-19T14:31:09.189Z,101348.00
2019-03-19T14:33:42.854Z,101355.00
2019-03-19T14:36:15.781Z,101359.00
2019-03-19T14:38:48.619Z,101352.00
2019-03-19T14:41:21.732Z,101365.00
2019-03-19T14:43:54.572Z,101363.00
2019-03-19T14:46:27.461Z,101365.00
2019-03-19T14:49:00.390Z,101360.00
2019-03-19T14:51:33.278Z,101357.00
2019-03-19T14:54:06.174Z,101351.00
2019-03-19T14:56:40.101Z,101368.00
2019-03-19T14:59:13.103Z,101366.00
2019-03-19T15:01:46.036Z,101372.00
2019-03-19T15:04:19.240Z,101365.00
2019-03-19T15:06:52.093Z,101376.00
2019-03-19T15:09:24.960Z,101364.00
2019-03-19T15:11:57.838Z,101367.00
2019-03-19T15:14:30.869Z,101360.00
2019-03-19T15:17:05.129Z,101363.00
2019-03-19T15:19:38.155Z,101372.00
2019-03-19T15:22:11.047Z,101369.00
2019-03-19T15:24:44.066Z,101370.00
2019-03-19T15:27:16.985Z,101361.00
2019-03-19T15:29:49.830Z,101363.00
2019-03-19T15:32:22.728Z,101370.00
2019-03-19T15:34:55.588Z,101347.00
2019-03-19T15:37:28.427Z,101379.00
2019-03-19T15:40:02.769Z,101371.00
2019-03-19T15:42:35.670Z,101364.00
2019-03-19T15:45:09.766Z,101365.00
2019-03-19T15:47:42.623Z,101374.00
2019-03-19T15:50:16.782Z,101381.00
2019-03-19T15:52:49.701Z,101373.00
2019-03-19T15:55:22.762Z,101373.00
2019-03-19T15:57:55.647Z,101371.00
2019-03-19T16:00:28.493Z,101382.00
2019-03-19T16:03:01.559Z,101381.00
2019-03-19T16:05:34.421Z,101376.00
2019-03-19T16:08:08.435Z,101384.00
2019-03-19T16:10:41.289Z,101389.00
2019-03-19T16:13:14.167Z,101386.00
2019-03-19T16:15:47.042Z,101398.00
2019-03-19T16:18:19.979Z,101392.00
2019-03-19T16:20:52.803Z,101401.00
2019-03-19T16:23:25.689Z,101392.00
2019-03-19T16:26:00.450Z,101407.00
2019-03-19T16:28:33.365Z,101402.00
2019-03-19T16:31:06.240Z,101403.00
2019-03-19T16:33:39.114Z,101409.00
2019-03-19T16:36:11.962Z,101398.00
2019-03-19T16:38:44.882Z,101398.00
2019-03-19T16:41:17.785Z,101411.00
2019-03-19T16:43:52.479Z,101403.00
2019-03-19T16:46:25.203Z,101407.00
2019-03-19T16:48:57.980Z,101405.00
2019-03-19T16:51:30.620Z,101408.00
2019-03-19T16:54:03.571Z,101416.00
2019-03-19T16:56:36.300Z,101418.00
2019-03-19T16:59:09.080Z,101420.00
2019-03-19T17:01:42.895Z,101425.00
2019-03-19T17:04:15.557Z,101431.00
2019-03-19T17:06:48.336Z,101427.00
2019-03-19T17:09:21.122Z,101440.00
2019-03-19T17:11:54.025Z,101433.00
2019-03-19T17:14:26.904Z,101437.00
2019-03-19T17:16:59.743Z,101437.00
2019-03-19T17:19:32.571Z,101435.00
2019-03-19T17:22:05.414Z,101440.00
2019-03-19T17:24:38.272Z,101442.00
2019-03-19T17:27:11.120Z,101449.00
2019-03-19T17:29:44.040Z,101460.00
2019-03-19T17:32:16.877Z,101446.00
2019-03-19T17:34:49.798Z,101444.00
2019-03-19T17:37:22.713Z,101448.00
2019-03-19T17:39:55.778Z,101449.00
2019-03-19T17:42:28.599Z,101443.00
2019-03-19T17:45:01.667Z,101449.00
2019-03-19T17:47:34.757Z,101456.00
2019-03-19T17:50:11.624Z,101457.00
2019-03-19T17:52:44.741Z,101466.00
2019-03-19T17:55:17.733Z,101471.00
2019-03-19T17:57:50.706Z,101466.00
2019-03-19T18:00:25.188Z,101486.00
2019-03-19T18:02:58.073Z,101487.00
2019-03-19T18:05:31.218Z,101488.00
2019-03-19T18:08:04.105Z,101489.00
2019-03-19T18:10:37.036Z,101493.00
2019-03-19T18:13:09.903Z,101494.00
2019-03-19T18:15:42.784Z,101488.00
2019-03-19T18:18:16.876Z,101490.00
2019-03-19T18:20:49.803Z,101491.00
2019-03-19T18:23:22.634Z,101493.00
2019-03-19T18:25:55.408Z,101488.00
2019-03-19T18:28:29.377Z,101496.00
2019-03-19T18:31:02.408Z,101498.00
2019-03-19T18:33:36.442Z,101492.00
2019-03-19T18:36:11.250Z,101492.00
2019-03-19T18:38:44.097Z,101481.00
2019-03-19T18:41:17.108Z,101492.00
2019-03-19T18:43:51.115Z,101495.00
2019-03-19T18:46:24.281Z,101506.00
2019-03-19T18:48:57.248Z,101505.00
2019-03-19T18:51:30.169Z,101515.00
2019-03-19T18:54:03.157Z,101505.00
2019-03-19T18:56:36.028Z,101509.00
2019-03-19T18:59:09.036Z,101507.00
2019-03-19T19:01:41.976Z,101523.00
2019-03-19T19:04:15.016Z,101511.00
2019-03-19T19:06:47.904Z,101516.00
2019-03-19T19:09:20.773Z,101519.00
2019-03-19T19:11:53.768Z,101528.00
2019-03-19T19:14:26.620Z,101528.00
2019-03-19T19:16:59.576Z,101537.00
2019-03-19T19:19:32.526Z,101530.00
2019-03-19T19:22:05.478Z,101528.00
2019-03-19T19:24:38.383Z,101528.00
2019-03-19T19:27:11.263Z,101533.00
2019-03-19T19:29:44.099Z,101536.00
2019-03-19T19:32:17.180Z,101535.00
2019-03-19T19:34:50.037Z,101536.00
2019-03-19T19:37:23.032Z,101543.00
2019-03-19T19:39:55.943Z,101545.00
2019-03-19T19:42:28.881Z,101544.00
2019-03-19T19:45:03.213Z,101545.00
2019-03-19T19:47:37.034Z,101556.00
2019-03-19T19:50:11.642Z,101543.00
2019-03-19T19:52:44.874Z,101544.00
2019-03-19T19:55:17.642Z,101555.00
2019-03-19T19:57:50.587Z,101542.00
2019-03-19T20:00:23.557Z,101552.00
2019-03-19T20:02:56.516Z,101554.00
2019-03-19T20:05:29.444Z,101552.00
2019-03-19T20:08:02.205Z,101561.00
2019-03-19T20:10:35.105Z,101562.00
2019-03-19T20:13:07.736Z,101575.00
2019-03-19T20:15:40.526Z,101566.00
2019-03-19T20:18:13.315Z,101567.00
2019-03-19T20:20:46.258Z,101582.00
2019-03-19T20:23:19.216Z,101579.00
2019-03-19T20:25:51.981Z,101594.00
2019-03-19T20:28:24.758Z,101587.00
2019-03-19T20:30:57.475Z,101589.00
2019-03-19T20:33:30.248Z,101587.00
2019-03-19T20:36:03.195Z,101593.00
2019-03-19T20:38:35.931Z,101599.00
2019-03-19T20:41:08.762Z,101601.00
2019-03-19T20:43:41.517Z,101601.00
2019-03-19T20:46:15.412Z,101609.00
2019-03-19T20:48:48.172Z,101603.00
2019-03-19T20:51:20.994Z,101608.00
2019-03-19T20:53:53.913Z,101605.00
2019-03-19T20:56:26.785Z,101613.00
2019-03-19T20:58:59.581Z,101613.00
2019-03-19T21:01:32.355Z,101613.00
2019-03-19T21:04:05.115Z,101614.00
2019-03-19T21:06:38.863Z,101619.00
2019-03-19T21:09:11.643Z,101620.00
2019-03-19T21:11:44.452Z,101628.00
2019-03-19T21:14:17.315Z,101629.00
2019-03-19T21:16:50.075Z,101632.00
2019-03-19T21:19:22.866Z,101627.00
2019-03-19T21:21:55.643Z,101638.00
2019-03-19T21:24:28.374Z,101637.00
2019-03-19T21:27:01.148Z,101638.00
2019-03-19T21:29:33.957Z,101646.00
2019-03-19T21:32:06.718Z,101642.00
2019-03-19T21:34:39.345Z,101638.00
2019-03-19T21:37:12.109Z,101655.00
2019-03-19T21:39:44.827Z,101640.00
2019-03-19T21:42:17.602Z,101647.00
2019-03-19T21:44:51.527Z,101650.00
2019-03-19T21:47:24.272Z,101646.00
2019-03-19T21:49:57.026Z,101645.00
2019-03-19T21:52:29.869Z,101650.00
2019-03-19T21:55:03.609Z,101649.00
2019-03-19T21:57:36.566Z,101648.00
2019-03-19T22:00:12.648Z,101660.00
2019-03-19T22:02:45.397Z,101655.00
2019-03-19T22:05:18.140Z,101653.00
2019-03-19T22:07:50.911Z,101645.00
2019-03-19T22:10:23.608Z,101655.00
2019-03-19T22:12:56.413Z,101655.00
2019-03-19T22:15:29.136Z,101652.00
2019-03-19T22:18:01.901Z,101657.00
2019-03-19T22:20:34.627Z,101659.00
2019-03-19T22:23:07.644Z,101663.00
2019-03-19T22:25:40.501Z,101666.00
2019-03-19T22:28:13.288Z,101672.00
2019-03-19T22:30:46.045Z,101677.00
2019-03-19T22:33:18.837Z,101665.00
2019-03-19T22:35:51.584Z,101667.00
2019-03-19T22:38:24.359Z,101668.00
2019-03-19T22:40:57.122Z,101665.00
2019-03-19T22:43:29.933Z,101666.00
2019-03-19T22:46:02.899Z,101680.00
2019-03-19T22:48:35.690Z,101677.00
2019-03-19T22:51:08.413Z,101671.00
2019-03-19T22:53:41.307Z,101683.00
2019-03-19T22:56:14.061Z,101682.00
2019-03-19T22:58:46.846Z,101686.00
2019-03-19T23:01:19.579Z,101697.00
2019-03-19T23:03:52.330Z,101687.00
2019-03-19T23:06:25.125Z,101698.00
2019-03-19T23:08:57.896Z,101698.00
2019-03-19T23:11:30.690Z,101704.00
2019-03-19T23:14:03.672Z,101708.00
2019-03-19T23:16:36.469Z,101714.00
2019-03-19T23:19:09.233Z,101706.00
2019-03-19T23:21:42.922Z,101711.00
2019-03-19T23:24:15.980Z,101711.00
2019-03-19T23:26:48.832Z,101702.00
2019-03-19T23:29:22.823Z,101702.00
2019-03-19T23:31:55.722Z,101705.00
2019-03-19T23:34:38.161Z,101717.00
2019-03-19T23:37:05.623Z,101720.00
2019-03-19T23:39:38.526Z,101716.00
2019-03-19T23:42:11.447Z,101713.00
2019-03-19T23:44:46.553Z,101708.00
2019-03-19T23:47:19.289Z,101713.00
2019-03-19T23:49:53.013Z,101722.00
2019-03-19T23:52:25.899Z,101721.00
2019-03-19T23:54:58.717Z,101718.00
2019-03-19T23:57:31.479Z,101713.00
